Decorah Municipal Airport
Tuesday 2:15 PM
Weather Sunny
VFR
Temperature 50°
Dew Point 30°
Feels Like 50°
Relative Humidity 46
%
Visibility 10
mi
Pressure 991.9
mb
Wind Direction WNW
Wind Speed 16
mph
Last Hour Precip 0.00
"
KDEH 272015Z AUTO 29014G21KT 260V320 10SM CLR 10/M01 A2929 RMK AO2

Recent Observations

Time Present Weather Temp DP Feels RH% Vsby Pressure Ceiling Direction Speed Gust 1h Precip
2:15PM
VFR
50° 30° 50° 46
%
10
mi
991.9
mb
None WNW 16
mph
24
mph
0.00"
KDEH 272015Z AUTO 29014G21KT 260V320 10SM CLR 10/M01 A2929 RMK AO2
1:55PM
VFR
52° 32° 52° 47
%
10
mi
991.9
mb
None WNW 15
mph
22
mph
0.00"
KDEH 271955Z AUTO 29013G19KT 10SM CLR 11/00 A2929 RMK AO2
1:35PM
VFR
54° 32° 54° 44
%
10
mi
991.9
mb
None WNW 9
mph
22
mph
0.00"
KDEH 271935Z AUTO 29008G19KT 260V330 10SM CLR 12/00 A2929 RMK AO2
1:15PM
VFR
59° 32° 59° 36
%
10
mi
991.5
mb
None W 12
mph
20
mph
0.00"
KDEH 271915Z AUTO 28010G17KT 230V320 10SM CLR 15/00 A2928 RMK AO2
12:55PM
VFR
63° 32° 63° 32
%
10
mi
990.9
mb
None WNW 12
mph
20
mph
0.00"
KDEH 271855Z AUTO 29010G17KT 240V310 10SM CLR 17/M00 A2926 RMK AO2
12:35PM
VFR
63° 30° 63° 29
%
10
mi
990.9
mb
None W 9
mph
21
mph
0.00"
KDEH 271835Z AUTO 27008G18KT 240V310 10SM CLR 17/M01 A2926 RMK AO2
12:15PM
VFR
63° 30° 63° 29
%
10
mi
991.5
mb
None WNW 8
mph
0.00"
KDEH 271815Z AUTO 29007KT 250V320 10SM CLR 17/M01 A2928 RMK AO2
11:55AM
VFR
61° 30° 61° 31
%
10
mi
991.5
mb
None W 10
mph
17
mph
0.00"
KDEH 271755Z AUTO 26009G15KT 230V290 10SM CLR 16/M01 A2928 RMK AO2
11:35AM
VFR
61° 30° 61° 31
%
10
mi
991.5
mb
None W 9
mph
17
mph
0.00"
KDEH 271735Z AUTO 28008G15KT 240V320 10SM CLR 16/M01 A2928 RMK AO2
11:15AM
VFR
59° 30° 59° 33
%
10
mi
991.5
mb
None W 8
mph
15
mph
0.00"
KDEH 271715Z AUTO 26007G13KT 10SM CLR 15/M01 A2928 RMK AO2
10:55AM
VFR
57° 28° 57° 33
%
10
mi
991.5
mb
None W 14
mph
22
mph
0.00"
KDEH 271655Z AUTO 26012G19KT 240V310 10SM CLR 14/M02 A2928 RMK AO2
10:35AM
VFR
57° 28° 57° 33
%
10
mi
991.2
mb
None WSW 13
mph
20
mph
0.00"
KDEH 271635Z AUTO 24011G17KT 210V270 10SM CLR 14/M02 A2927 RMK AO2
10:15AM
VFR
54° 28° 54° 38
%
10
mi
991.2
mb
None SW 10
mph
0.00"
KDEH 271615Z AUTO 23009KT 10SM CLR 12/M02 A2927 RMK AO2
9:55AM
VFR
54° 28° 54° 38
%
10
mi
991.2
mb
None W 10
mph
16
mph
0.00"
KDEH 271555Z AUTO 26009G14KT 230V290 10SM CLR 12/M02 A2927 RMK AO2
9:35AM
VFR
52° 28° 52° 40
%
10
mi
990.9
mb
None VRB 6
mph
14
mph
0.00"
KDEH 271535Z AUTO VRB05G12KT 10SM CLR 11/M02 A2926 RMK AO2
9:15AM
VFR
50° 28° 50° 43
%
10
mi
990.9
mb
None VRB 6
mph
14
mph
0.00"
KDEH 271515Z AUTO VRB05G12KT 10SM CLR 10/M02 A2926 RMK AO2
8:55AM
VFR
48° 30° 47° 50
%
10
mi
990.9
mb
None VRB 3
mph
13
mph
0.00"
KDEH 271455Z AUTO VRB03G11KT 10SM CLR 09/M01 A2926 RMK AO2
8:35AM
VFR
46° 30° 43° 53
%
10
mi
990.9
mb
None SSW 7
mph
0.00"
KDEH 271435Z AUTO 21006KT 10SM CLR 08/M01 A2926 RMK AO2
8:15AM
VFR
43° 32° 39° 65
%
10
mi
990.9
mb
None SSW 6
mph
0.00"
KDEH 271415Z AUTO 20005KT 10SM CLR 06/M00 A2926 RMK AO2
7:55AM
VFR
43° 32° 39° 65
%
10
mi
990.9
mb
None VRB 6
mph
0.00"
KDEH 271355Z AUTO VRB05KT 10SM CLR 06/M00 A2926 RMK AO2
Click here to show this page without METARs/TAFs included